Time;durP1;ratioP1;P1;durP2;ratioP2;P2;SDS_P1;SDS_P2;PMS_P1;PMS_P2;Temp;Humidity;BMP_temperature;BMP_pressure;BME280_temperature;BME280_humidity;BME280_pressure;Samples;Min_cycle;Max_cycle;Signal;HPM_P1;HPM_P2
2023/07/16 00:00:15;;;;;;;4.50;3.60;;;21.80;99.90;;;;;;5032258;28;20034;-48
2023/07/16 00:02:40;;;;;;;6.90;3.83;;;21.80;99.90;;;;;;5031882;28;20025;-50
2023/07/16 00:05:06;;;;;;;8.73;4.22;;;21.80;99.90;;;;;;5032064;28;20029;-48
2023/07/16 00:07:32;;;;;;;5.28;3.78;;;21.80;99.90;;;;;;5031595;28;20033;-48
2023/07/16 00:09:57;;;;;;;8.60;4.00;;;21.80;99.90;;;;;;5047394;28;20083;-52
2023/07/16 00:12:23;;;;;;;7.47;4.00;;;21.70;99.90;;;;;;5030201;28;20029;-48
2023/07/16 00:14:48;;;;;;;13.98;4.88;;;21.70;99.90;;;;;;5031861;28;20040;-49
2023/07/16 00:17:14;;;;;;;5.70;4.55;;;21.80;99.90;;;;;;5031737;28;20028;-48
2023/07/16 00:19:40;;;;;;;7.95;4.28;;;21.70;99.90;;;;;;5031572;28;20026;-50
2023/07/16 00:22:05;;;;;;;7.15;4.30;;;21.70;99.90;;;;;;5031046;28;20029;-47
2023/07/16 00:24:31;;;;;;;6.05;4.45;;;21.70;99.90;;;;;;5031252;28;20471;-48
2023/07/16 00:26:57;;;;;;;6.38;4.47;;;21.60;99.90;;;;;;5031406;28;20036;-49
2023/07/16 00:29:23;;;;;;;5.35;4.85;;;21.60;99.90;;;;;;5031073;28;20029;-50
2023/07/16 00:31:49;;;;;;;5.30;4.80;;;21.60;99.90;;;;;;5030844;28;20017;-51
2023/07/16 00:34:14;;;;;;;5.45;4.13;;;21.60;99.90;;;;;;5031192;28;20033;-50
2023/07/16 00:36:40;;;;;;;5.60;4.65;;;21.60;99.90;;;;;;5031235;28;20014;-48
2023/07/16 00:39:05;;;;;;;4.80;4.30;;;21.50;99.90;;;;;;5031237;28;20021;-48
2023/07/16 00:41:31;;;;;;;10.45;4.70;;;21.50;99.90;;;;;;5030787;28;20107;-48
2023/07/16 00:43:56;;;;;;;9.63;5.65;;;21.50;99.90;;;;;;5031163;28;20230;-48
2023/07/16 00:46:23;;;;;;;8.18;4.93;;;21.50;99.90;;;;;;5030321;28;20029;-48
2023/07/16 00:48:49;;;;;;;10.68;5.43;;;21.50;99.90;;;;;;5030374;28;20080;-47
2023/07/16 00:51:14;;;;;;;7.70;5.88;;;21.40;99.90;;;;;;5030413;28;20029;-50
2023/07/16 00:53:42;;;;;;;8.10;5.28;;;21.40;99.90;;;;;;5030174;28;20021;-47
2023/07/16 00:56:08;;;;;;;11.70;5.32;;;21.40;99.90;;;;;;5029059;28;20493;-48
2023/07/16 00:58:34;;;;;;;5.82;5.00;;;21.40;99.90;;;;;;5030394;28;20030;-48
2023/07/16 01:01:00;;;;;;;10.85;5.15;;;21.40;99.90;;;;;;5030612;28;20109;-48
2023/07/16 01:03:26;;;;;;;6.70;5.13;;;21.30;99.90;;;;;;5030683;28;20025;-48
2023/07/16 01:06:12;;;;;;;10.07;5.30;;;21.40;99.90;;;;;;5030588;28;20116;-49
2023/07/16 01:09:07;;;;;;;7.45;4.90;;;21.40;99.90;;;;;;5030653;28;20057;-48
2023/07/16 01:11:35;;;;;;;8.50;5.30;;;21.40;99.90;;;;;;5030381;28;20495;-48
2023/07/16 01:14:01;;;;;;;7.82;4.57;;;21.30;99.90;;;;;;5030706;28;20027;-48
2023/07/16 01:16:27;;;;;;;7.13;4.55;;;21.30;99.90;;;;;;5030931;28;20025;-50
2023/07/16 01:18:53;;;;;;;6.43;4.93;;;21.30;99.90;;;;;;5030754;28;20021;-48
2023/07/16 01:21:21;;;;;;;6.63;4.65;;;21.30;99.90;;;;;;5030287;28;20029;-52
2023/07/16 01:24:04;;;;;;;4.63;4.22;;;21.30;99.90;;;;;;5030702;28;20018;-48
2023/07/16 01:26:39;;;;;;;4.47;4.07;;;21.30;99.90;;;;;;5030252;28;20025;-49
2023/07/16 01:29:05;;;;;;;4.40;3.78;;;21.30;99.90;;;;;;5030490;28;20025;-49
2023/07/16 01:31:33;;;;;;;5.78;4.50;;;21.30;99.90;;;;;;5030232;28;20029;-52
2023/07/16 01:33:59;;;;;;;6.00;3.95;;;21.20;99.90;;;;;;5030226;28;20474;-51
2023/07/16 01:36:25;;;;;;;3.75;3.33;;;21.20;99.90;;;;;;5029542;28;20029;-50
2023/07/16 01:38:51;;;;;;;4.32;3.85;;;21.20;99.90;;;;;;5029446;28;20060;-48
2023/07/16 01:41:18;;;;;;;6.68;4.10;;;21.20;99.90;;;;;;5044553;28;20061;-48
2023/07/16 01:43:44;;;;;;;4.25;3.72;;;21.20;99.90;;;;;;5029742;28;20042;-48
2023/07/16 01:46:09;;;;;;;4.30;3.83;;;21.20;99.90;;;;;;5029972;28;20077;-50
2023/07/16 01:48:36;;;;;;;4.22;3.80;;;21.10;99.90;;;;;;5029397;28;20021;-48
2023/07/16 01:51:03;;;;;;;6.20;4.05;;;21.10;99.90;;;;;;5028360;28;20525;-49
2023/07/16 01:53:29;;;;;;;5.97;3.70;;;21.10;99.90;;;;;;5029790;28;20394;-51
2023/07/16 01:55:54;;;;;;;3.90;3.50;;;21.00;99.90;;;;;;5030074;28;20026;-48
2023/07/16 01:58:20;;;;;;;4.25;3.85;;;21.00;99.90;;;;;;5029794;28;20029;-48
2023/07/16 02:00:48;;;;;;;3.85;3.55;;;21.00;99.90;;;;;;5030281;28;20092;-48
2023/07/16 02:03:13;;;;;;;4.15;3.42;;;20.90;99.90;;;;;;5044809;28;20026;-47
2023/07/16 02:05:39;;;;;;;4.70;3.78;;;21.00;99.90;;;;;;5029730;28;20435;-51
2023/07/16 02:08:04;;;;;;;4.53;3.28;;;20.90;99.90;;;;;;5029661;28;20558;-51
2023/07/16 02:10:30;;;;;;;4.47;3.55;;;20.90;99.90;;;;;;5029635;28;20021;-49
2023/07/16 02:12:56;;;;;;;5.80;4.10;;;20.90;99.90;;;;;;5029775;28;20018;-51
2023/07/16 02:15:21;;;;;;;4.03;3.47;;;20.90;99.90;;;;;;5029498;28;20034;-48
2023/07/16 02:17:47;;;;;;;6.45;3.70;;;20.90;99.90;;;;;;5029609;28;20083;-47
2023/07/16 02:20:13;;;;;;;6.32;3.30;;;20.90;99.90;;;;;;5029776;28;20378;-48
2023/07/16 02:22:39;;;;;;;3.40;2.95;;;20.80;99.90;;;;;;5029456;28;20060;-48
2023/07/16 02:25:05;;;;;;;4.25;3.00;;;20.80;99.90;;;;;;5029491;28;20021;-49
2023/07/16 02:27:31;;;;;;;3.78;3.15;;;20.80;99.90;;;;;;5029305;28;20128;-51
2023/07/16 02:29:56;;;;;;;3.78;2.58;;;20.70;99.90;;;;;;5029761;28;20100;-48
2023/07/16 02:32:22;;;;;;;3.20;2.53;;;20.70;99.90;;;;;;5027616;28;20063;-48
2023/07/16 02:34:48;;;;;;;3.53;2.83;;;20.70;99.90;;;;;;5029888;28;20097;-49
2023/07/16 02:37:14;;;;;;;3.47;2.60;;;20.60;99.90;;;;;;5029368;28;20104;-50
2023/07/16 02:39:41;;;;;;;4.00;2.60;;;20.60;99.90;;;;;;5029363;28;20021;-48
2023/07/16 02:42:06;;;;;;;3.92;2.30;;;20.60;99.90;;;;;;5029434;28;20489;-47
2023/07/16 02:44:32;;;;;;;3.38;2.50;;;20.50;99.90;;;;;;5036084;28;20029;-47
2023/07/16 02:46:57;;;;;;;3.40;2.60;;;20.50;99.90;;;;;;5029470;28;20041;-48
2023/07/16 02:49:23;;;;;;;3.80;2.47;;;20.50;99.90;;;;;;5030650;28;20021;-48
2023/07/16 02:51:48;;;;;;;3.40;2.28;;;20.40;99.90;;;;;;5033137;28;20410;-50
2023/07/16 02:54:14;;;;;;;3.97;2.42;;;20.40;99.90;;;;;;5033376;28;20018;-48
2023/07/16 02:56:39;;;;;;;3.00;2.58;;;20.40;99.90;;;;;;5033059;28;20681;-48
2023/07/16 02:59:05;;;;;;;5.20;2.65;;;20.30;99.90;;;;;;5048676;28;20017;-48
2023/07/16 03:01:30;;;;;;;3.53;2.70;;;20.30;99.90;;;;;;5048345;28;20453;-47
2023/07/16 03:03:56;;;;;;;3.83;2.47;;;20.30;99.90;;;;;;5033636;28;20021;-50
2023/07/16 03:06:21;;;;;;;3.10;2.50;;;20.20;99.90;;;;;;5033193;28;20044;-50
2023/07/16 03:08:48;;;;;;;3.63;2.47;;;20.30;99.90;;;;;;5033115;28;20356;-48
2023/07/16 03:11:13;;;;;;;6.82;3.00;;;20.20;99.90;;;;;;5032679;28;20079;-48
2023/07/16 03:13:39;;;;;;;3.33;2.63;;;20.20;99.90;;;;;;5033315;28;20018;-48
2023/07/16 03:16:04;;;;;;;3.08;2.67;;;20.10;99.90;;;;;;5033155;28;20064;-47
2023/07/16 03:18:30;;;;;;;3.08;2.50;;;20.10;99.90;;;;;;5033085;28;20090;-48
2023/07/16 03:20:59;;;;;;;2.88;2.42;;;20.10;99.90;;;;;;5032988;28;20049;-50
2023/07/16 03:23:25;;;;;;;2.80;2.53;;;20.00;99.90;;;;;;5032909;28;20034;-48
2023/07/16 03:25:51;;;;;;;6.35;3.03;;;19.90;99.90;;;;;;5032597;28;20030;-47
2023/07/16 03:28:17;;;;;;;5.22;2.90;;;19.80;99.90;;;;;;5032714;28;20052;-51
2023/07/16 03:30:50;;;;;;;4.97;2.92;;;19.80;99.90;;;;;;5032871;28;20029;-47
2023/07/16 03:33:16;;;;;;;5.82;2.67;;;19.70;99.90;;;;;;5032248;28;20025;-48
2023/07/16 03:35:45;;;;;;;4.72;2.88;;;19.70;99.90;;;;;;5032584;28;20457;-47
2023/07/16 03:38:11;;;;;;;4.18;2.90;;;19.60;99.90;;;;;;5032329;28;20033;-48
2023/07/16 03:40:37;;;;;;;4.18;3.10;;;19.60;99.90;;;;;;5047813;28;20025;-49
2023/07/16 03:43:03;;;;;;;5.25;2.85;;;19.50;99.90;;;;;;5032347;28;20024;-51
2023/07/16 03:45:28;;;;;;;8.10;3.10;;;19.50;99.90;;;;;;5032362;28;20044;-48
2023/07/16 03:47:54;;;;;;;7.50;3.38;;;19.50;99.90;;;;;;5032188;28;20029;-47
2023/07/16 03:50:20;;;;;;;3.33;2.58;;;19.40;99.90;;;;;;5032092;28;20118;-47
2023/07/16 03:52:45;;;;;;;5.47;3.17;;;19.30;99.90;;;;;;5031900;28;20573;-50
2023/07/16 03:55:11;;;;;;;3.80;2.88;;;19.40;99.90;;;;;;5032037;28;20104;-51
2023/07/16 03:57:37;;;;;;;3.00;2.60;;;19.40;99.90;;;;;;5027535;28;20072;-51
2023/07/16 04:00:09;;;;;;;7.05;3.60;;;19.40;99.90;;;;;;5027000;28;20385;-48
2023/07/16 04:02:35;;;;;;;4.60;3.20;;;19.30;99.90;;;;;;5032098;28;20018;-50
2023/07/16 04:05:01;;;;;;;6.88;2.90;;;19.40;99.90;;;;;;5032060;28;20048;-49
2023/07/16 04:07:26;;;;;;;3.45;2.90;;;19.40;99.90;;;;;;5031629;28;20033;-51
2023/07/16 04:09:52;;;;;;;5.00;3.97;;;19.40;99.90;;;;;;5032386;28;20029;-48
2023/07/16 04:12:17;;;;;;;5.18;3.75;;;19.30;99.90;;;;;;5031604;28;20028;-48
2023/07/16 04:14:43;;;;;;;3.92;3.25;;;19.30;99.90;;;;;;5030597;28;20060;-47
2023/07/16 04:17:09;;;;;;;3.22;2.83;;;19.30;99.90;;;;;;5031732;28;20030;-48
2023/07/16 04:19:34;;;;;;;7.00;3.30;;;19.30;99.90;;;;;;5031415;28;20289;-48
2023/07/16 04:22:00;;;;;;;5.75;3.00;;;19.30;99.90;;;;;;5046119;28;20013;-51
2023/07/16 04:24:26;;;;;;;4.47;3.05;;;19.30;99.90;;;;;;5031466;28;20466;-47
2023/07/16 04:26:53;;;;;;;3.17;2.67;;;19.40;99.90;;;;;;5031555;28;20417;-47
2023/07/16 04:29:18;;;;;;;4.30;2.67;;;19.40;99.90;;;;;;5030234;28;20385;-48
2023/07/16 04:31:44;;;;;;;6.07;2.95;;;19.40;99.90;;;;;;5031388;28;20097;-51
2023/07/16 04:34:09;;;;;;;5.60;2.72;;;19.40;99.90;;;;;;5031584;28;20017;-48
2023/07/16 04:36:35;;;;;;;5.50;3.17;;;19.40;99.90;;;;;;5031263;28;20487;-49
2023/07/16 04:39:01;;;;;;;5.25;3.38;;;19.40;99.90;;;;;;5030059;28;20033;-48
2023/07/16 04:41:27;;;;;;;8.32;3.55;;;19.30;99.90;;;;;;5030942;28;20037;-51
2023/07/16 04:43:52;;;;;;;5.13;3.08;;;19.30;99.90;;;;;;5031202;28;20069;-51
2023/07/16 04:46:18;;;;;;;4.35;3.10;;;19.30;99.90;;;;;;5030990;28;20422;-49
2023/07/16 04:48:43;;;;;;;6.53;3.47;;;19.30;99.90;;;;;;5030964;28;20025;-48
2023/07/16 04:51:09;;;;;;;5.95;3.63;;;19.30;99.90;;;;;;5046079;28;20163;-51
2023/07/16 04:53:34;;;;;;;5.10;3.28;;;19.30;99.90;;;;;;5030855;28;20107;-49
2023/07/16 04:56:00;;;;;;;6.75;3.22;;;19.30;99.90;;;;;;5030840;28;20466;-51
2023/07/16 04:58:25;;;;;;;7.72;3.25;;;19.30;99.90;;;;;;5030934;28;20065;-48
2023/07/16 05:00:51;;;;;;;8.60;3.33;;;19.30;99.90;;;;;;5030881;28;20078;-47
2023/07/16 05:03:16;;;;;;;7.32;3.47;;;19.30;99.90;;;;;;5030584;28;20490;-49
2023/07/16 05:05:42;;;;;;;5.18;3.40;;;19.30;99.90;;;;;;5030888;28;20052;-47
2023/07/16 05:08:07;;;;;;;6.18;3.70;;;19.30;99.90;;;;;;5045841;28;20036;-48
2023/07/16 05:10:33;;;;;;;10.38;3.75;;;19.30;99.90;;;;;;5030775;28;20427;-47
2023/07/16 05:12:59;;;;;;;5.20;3.40;;;19.30;99.90;;;;;;5045097;28;20028;-50
2023/07/16 05:15:24;;;;;;;4.88;3.75;;;19.30;99.90;;;;;;5030657;28;20021;-51
2023/07/16 05:17:50;;;;;;;6.82;3.50;;;19.40;99.90;;;;;;5045999;28;20364;-47
2023/07/16 05:20:16;;;;;;;7.00;3.47;;;19.40;99.90;;;;;;5030190;28;20042;-49
2023/07/16 05:22:41;;;;;;;4.63;3.13;;;19.40;99.90;;;;;;5029988;28;20018;-48
2023/07/16 05:25:07;;;;;;;4.88;3.20;;;19.40;99.90;;;;;;5045770;28;20025;-48
2023/07/16 05:27:32;;;;;;;4.70;2.50;;;19.40;99.90;;;;;;5030162;28;20091;-48
2023/07/16 05:29:58;;;;;;;8.88;3.10;;;19.40;99.90;;;;;;5030327;28;20044;-47
2023/07/16 05:32:24;;;;;;;3.80;2.63;;;19.50;99.90;;;;;;5028614;28;20396;-48
2023/07/16 05:34:49;;;;;;;6.78;2.38;;;19.50;99.90;;;;;;5030363;28;20120;-50
2023/07/16 05:37:15;;;;;;;5.47;2.58;;;19.50;99.90;;;;;;5030350;28;20059;-48
2023/07/16 05:39:40;;;;;;;8.27;3.15;;;19.60;99.90;;;;;;5045406;28;20051;-50
2023/07/16 05:42:06;;;;;;;5.63;2.60;;;19.60;99.90;;;;;;5029976;28;20025;-47
2023/07/16 05:44:31;;;;;;;8.65;2.90;;;19.70;99.90;;;;;;5028925;28;20514;-47
2023/07/16 05:46:57;;;;;;;4.95;2.55;;;19.70;99.90;;;;;;5030054;28;20033;-47
2023/07/16 05:49:24;;;;;;;4.45;2.75;;;19.70;99.90;;;;;;5029889;28;20037;-48
2023/07/16 05:51:49;;;;;;;4.88;2.53;;;19.80;99.90;;;;;;5029948;28;20045;-47
2023/07/16 05:54:15;;;;;;;4.65;2.65;;;19.80;99.90;;;;;;5029712;28;20052;-48
2023/07/16 05:56:40;;;;;;;3.40;2.38;;;19.80;99.90;;;;;;5029451;28;20029;-47
2023/07/16 05:59:06;;;;;;;5.65;2.65;;;19.80;99.90;;;;;;5029772;28;20033;-48
2023/07/16 06:01:31;;;;;;;5.65;2.60;;;19.90;99.90;;;;;;5028906;28;20061;-49
2023/07/16 06:03:57;;;;;;;4.45;2.30;;;19.90;99.90;;;;;;5029372;28;20026;-47
2023/07/16 06:06:22;;;;;;;6.78;2.58;;;19.90;99.90;;;;;;5028998;28;20082;-47
2023/07/16 06:08:48;;;;;;;7.18;3.08;;;19.90;99.90;;;;;;5029153;28;20071;-48
2023/07/16 06:11:14;;;;;;;6.05;2.58;;;20.00;99.90;;;;;;5028708;28;20026;-50
2023/07/16 06:13:40;;;;;;;6.85;3.03;;;20.00;99.90;;;;;;5029265;28;20088;-48
2023/07/16 06:16:05;;;;;;;5.78;3.10;;;20.00;99.90;;;;;;5028059;28;20413;-50
2023/07/16 06:18:31;;;;;;;3.85;2.30;;;20.00;99.90;;;;;;5029686;28;20033;-47
2023/07/16 06:20:56;;;;;;;4.93;2.38;;;20.00;99.90;;;;;;5029421;28;20087;-48
2023/07/16 06:23:22;;;;;;;5.95;2.72;;;20.00;99.90;;;;;;5029824;28;20037;-47
2023/07/16 06:25:48;;;;;;;4.57;2.50;;;20.10;99.90;;;;;;5033541;28;20104;-48
2023/07/16 06:28:15;;;;;;;4.90;3.20;;;20.10;99.90;;;;;;5033004;28;20112;-47
2023/07/16 06:30:40;;;;;;;7.40;3.10;;;20.10;99.90;;;;;;5033292;28;20386;-47
2023/07/16 06:33:06;;;;;;;2.85;2.38;;;20.20;99.90;;;;;;5032950;28;20092;-47
2023/07/16 06:35:32;;;;;;;6.32;2.67;;;20.20;99.90;;;;;;5033103;28;20523;-47
2023/07/16 06:37:57;;;;;;;6.90;2.65;;;20.20;99.90;;;;;;5033288;28;20164;-47
2023/07/16 06:40:24;;;;;;;8.52;2.67;;;20.30;99.90;;;;;;5032975;28;20038;-47
2023/07/16 06:42:50;;;;;;;7.15;2.92;;;20.30;99.90;;;;;;5032801;28;20036;-48
2023/07/16 06:45:16;;;;;;;7.75;3.22;;;20.50;99.90;;;;;;5032987;28;20487;-48
2023/07/16 06:47:42;;;;;;;5.43;2.95;;;20.50;99.90;;;;;;5031483;28;20033;-48
2023/07/16 06:50:08;;;;;;;6.15;3.05;;;20.50;99.90;;;;;;5031839;28;20017;-48
2023/07/16 06:52:33;;;;;;;5.53;3.28;;;20.60;99.90;;;;;;5032406;28;20056;-48
2023/07/16 06:54:59;;;;;;;7.80;3.20;;;20.70;99.90;;;;;;5031520;28;20025;-47
2023/07/16 06:57:24;;;;;;;4.22;3.08;;;20.70;99.90;;;;;;5030529;28;20108;-47
2023/07/16 06:59:50;;;;;;;6.28;2.90;;;20.80;99.90;;;;;;5032629;28;20028;-48
2023/07/16 07:02:17;;;;;;;5.47;3.13;;;20.90;99.90;;;;;;5032003;28;20108;-48
2023/07/16 07:04:42;;;;;;;6.72;3.05;;;21.00;99.90;;;;;;5032933;28;20478;-47
2023/07/16 07:07:08;;;;;;;6.20;3.38;;;21.00;99.90;;;;;;5032247;28;20083;-48
2023/07/16 07:09:34;;;;;;;7.55;3.60;;;21.10;99.90;;;;;;5032447;28;20018;-49
2023/07/16 07:11:59;;;;;;;5.38;2.88;;;21.20;99.90;;;;;;5031931;28;20071;-49
2023/07/16 07:14:25;;;;;;;4.80;2.47;;;21.20;99.90;;;;;;5032536;28;20033;-48
2023/07/16 07:16:50;;;;;;;7.00;3.17;;;21.20;99.90;;;;;;5032422;28;20045;-48
2023/07/16 07:19:16;;;;;;;6.57;2.83;;;21.40;99.90;;;;;;5032710;28;20108;-47
2023/07/16 07:21:42;;;;;;;5.38;2.78;;;21.40;99.90;;;;;;5031938;28;20026;-48
2023/07/16 07:24:07;;;;;;;6.47;3.05;;;21.60;99.90;;;;;;5032655;28;20516;-47
2023/07/16 07:26:33;;;;;;;6.93;2.85;;;21.50;99.90;;;;;;5032250;28;20108;-47
2023/07/16 07:28:58;;;;;;;3.63;2.83;;;21.70;99.90;;;;;;5032097;28;20021;-47
2023/07/16 07:31:24;;;;;;;7.93;3.00;;;21.80;99.90;;;;;;5032169;28;20390;-48
2023/07/16 07:33:49;;;;;;;6.85;2.88;;;21.80;99.90;;;;;;5032255;28;20018;-48
2023/07/16 07:36:15;;;;;;;3.80;2.60;;;21.90;99.90;;;;;;5046849;28;20022;-48
2023/07/16 07:38:40;;;;;;;4.85;2.75;;;21.90;99.90;;;;;;5032432;28;20025;-48
2023/07/16 07:41:06;;;;;;;8.82;2.80;;;22.20;99.90;;;;;;5032266;28;20025;-50
2023/07/16 07:43:32;;;;;;;10.27;2.83;;;22.30;99.90;;;;;;5038530;28;20482;-48
2023/07/16 07:45:57;;;;;;;6.55;2.70;;;22.30;99.90;;;;;;5047501;28;20372;-47
2023/07/16 07:48:23;;;;;;;8.88;3.00;;;22.50;99.90;;;;;;5047263;28;20030;-48
2023/07/16 07:50:48;;;;;;;5.60;3.05;;;22.80;99.90;;;;;;5032204;28;20032;-48
2023/07/16 07:53:20;;;;;;;4.22;2.63;;;22.90;99.90;;;;;;5031785;28;20029;-49
2023/07/16 07:55:46;;;;;;;5.88;2.28;;;23.10;99.90;;;;;;5031964;28;20087;-48
2023/07/16 07:58:12;;;;;;;4.70;2.58;;;23.10;99.90;;;;;;5031883;28;20034;-48
2023/07/16 08:00:38;;;;;;;6.25;2.60;;;23.00;99.90;;;;;;5031773;28;20026;-48
2023/07/16 08:03:03;;;;;;;6.38;2.67;;;23.10;99.90;;;;;;5031623;28;20044;-50
2023/07/16 08:05:29;;;;;;;3.78;2.20;;;23.30;99.90;;;;;;5031806;28;20025;-48
2023/07/16 08:07:55;;;;;;;6.43;2.75;;;23.40;99.90;;;;;;5031650;28;20265;-48
2023/07/16 08:10:21;;;;;;;4.78;2.47;;;23.50;99.70;;;;;;5031833;28;20033;-49
2023/07/16 08:12:47;;;;;;;6.00;3.00;;;23.40;99.90;;;;;;5046723;28;20524;-49
2023/07/16 08:15:16;;;;;;;3.15;2.00;;;23.50;99.50;;;;;;5031555;28;20033;-49
2023/07/16 08:17:43;;;;;;;7.00;2.40;;;23.80;99.10;;;;;;5023964;28;20029;-50
2023/07/16 08:20:09;;;;;;;4.93;2.13;;;24.00;94.90;;;;;;5030157;28;20030;-48
2023/07/16 08:22:35;;;;;;;3.50;2.20;;;24.00;93.70;;;;;;5031255;28;20234;-47
2023/07/16 08:25:00;;;;;;;4.13;2.35;;;24.20;92.20;;;;;;5031525;28;20449;-48
2023/07/16 08:27:26;;;;;;;6.38;1.70;;;24.80;91.80;;;;;;5031139;28;20018;-48
2023/07/16 08:29:51;;;;;;;6.47;2.00;;;25.60;90.10;;;;;;5031164;28;20045;-52
2023/07/16 08:32:19;;;;;;;4.00;1.85;;;26.90;85.90;;;;;;5030630;28;20498;-52
2023/07/16 08:34:44;;;;;;;5.28;1.67;;;27.80;80.00;;;;;;5031090;28;20017;-52
2023/07/16 08:37:10;;;;;;;4.75;1.80;;;28.10;77.10;;;;;;5031231;28;20036;-53
2023/07/16 08:39:35;;;;;;;3.10;1.50;;;29.10;74.90;;;;;;5031079;28;20029;-52
2023/07/16 08:42:01;;;;;;;5.97;1.83;;;29.30;70.80;;;;;;5030526;28;20033;-53
2023/07/16 08:44:28;;;;;;;6.68;2.22;;;29.80;72.10;;;;;;5029158;28;20021;-53
2023/07/16 08:46:54;;;;;;;3.58;2.00;;;30.50;68.40;;;;;;5029231;28;20386;-53
2023/07/16 08:49:22;;;;;;;5.75;1.98;;;30.80;66.00;;;;;;5029974;28;20021;-52
2023/07/16 08:51:49;;;;;;;6.90;2.15;;;30.60;65.00;;;;;;5030241;28;20021;-53
2023/07/16 08:54:19;;;;;;;4.90;2.05;;;31.30;66.90;;;;;;5030659;28;20021;-52
2023/07/16 08:56:46;;;;;;;3.45;1.73;;;31.60;62.90;;;;;;5023015;28;20014;-52
2023/07/16 08:59:14;;;;;;;4.07;1.50;;;31.90;64.70;;;;;;5045732;28;20473;-51
2023/07/16 09:01:40;;;;;;;5.45;2.17;;;31.80;62.10;;;;;;5030140;28;20440;-52
2023/07/16 09:04:05;;;;;;;4.03;1.73;;;31.70;61.20;;;;;;5030385;28;20064;-52
2023/07/16 09:06:31;;;;;;;2.75;1.75;;;32.20;61.40;;;;;;5030309;28;20033;-53
2023/07/16 09:08:56;;;;;;;4.85;1.90;;;32.40;62.00;;;;;;5029680;28;20501;-53
2023/07/16 09:11:23;;;;;;;7.90;2.17;;;32.20;61.30;;;;;;5029853;28;20543;-52
2023/07/16 09:13:49;;;;;;;5.72;2.03;;;31.50;61.80;;;;;;5030158;28;20436;-51
2023/07/16 09:16:18;;;;;;;4.78;1.40;;;30.50;64.90;;;;;;5030074;28;20125;-52
2023/07/16 09:18:45;;;;;;;4.33;1.67;;;29.90;65.40;;;;;;5021493;28;20025;-51
2023/07/16 09:21:10;;;;;;;5.78;2.28;;;29.50;65.70;;;;;;5028430;28;20026;-49
2023/07/16 09:23:36;;;;;;;6.53;2.22;;;30.20;63.90;;;;;;5029044;28;20026;-52
2023/07/16 09:26:04;;;;;;;5.38;2.00;;;30.00;64.80;;;;;;5029027;28;20029;-52
2023/07/16 09:28:33;;;;;;;8.10;2.45;;;29.70;64.30;;;;;;5028449;28;20026;-52
2023/07/16 09:31:07;;;;;;;4.05;1.90;;;29.00;65.40;;;;;;5028698;28;20017;-51
2023/07/16 09:33:32;;;;;;;5.40;2.10;;;28.40;64.00;;;;;;5029012;28;20082;-49
2023/07/16 09:35:58;;;;;;;5.15;1.73;;;28.20;66.00;;;;;;5030197;28;20051;-51
2023/07/16 09:38:24;;;;;;;4.25;2.00;;;28.50;64.90;;;;;;5029997;28;20040;-48
2023/07/16 09:40:52;;;;;;;5.43;1.90;;;29.00;66.00;;;;;;5029915;28;20048;-53
2023/07/16 09:43:18;;;;;;;6.65;2.33;;;30.30;64.90;;;;;;5029691;28;20021;-51
2023/07/16 09:45:43;;;;;;;8.90;2.30;;;31.10;62.60;;;;;;5029965;28;20045;-51
2023/07/16 09:48:09;;;;;;;6.35;2.20;;;30.80;62.00;;;;;;5029830;28;20159;-52
2023/07/16 09:50:36;;;;;;;3.58;2.10;;;30.60;61.60;;;;;;5030353;28;20032;-51
2023/07/16 09:53:04;;;;;;;4.00;1.90;;;30.90;60.90;;;;;;5029812;28;20497;-53
2023/07/16 09:55:33;;;;;;;3.10;1.95;;;31.60;61.50;;;;;;5029648;28;20522;-52
2023/07/16 09:58:00;;;;;;;3.78;2.40;;;32.70;57.70;;;;;;5029231;28;20096;-52
2023/07/16 10:00:27;;;;;;;6.50;2.33;;;32.60;56.90;;;;;;5029395;28;20280;-52
2023/07/16 10:02:52;;;;;;;4.88;2.10;;;32.50;56.30;;;;;;5029396;28;20029;-52
2023/07/16 10:05:26;;;;;;;3.13;1.77;;;32.70;57.20;;;;;;5029529;28;20109;-52
2023/07/16 10:07:54;;;;;;;4.93;2.10;;;32.10;55.80;;;;;;5037667;28;20153;-52
2023/07/16 10:10:21;;;;;;;3.13;2.00;;;32.70;57.30;;;;;;5029384;28;20055;-52
2023/07/16 10:13:00;;;;;;;4.60;2.20;;;33.40;55.50;;;;;;5029081;28;20005;-53
2023/07/16 10:15:27;;;;;;;3.92;1.80;;;34.10;55.20;;;;;;5029492;28;20052;-55
2023/07/16 10:17:53;;;;;;;3.75;1.85;;;34.40;53.90;;;;;;5029552;28;20494;-54
2023/07/16 10:20:28;;;;;;;4.68;2.10;;;34.00;52.80;;;;;;5029341;28;20087;-53
2023/07/16 10:22:54;;;;;;;5.13;2.00;;;33.00;53.80;;;;;;5029493;28;20042;-53
2023/07/16 10:25:19;;;;;;;4.00;1.77;;;32.60;54.20;;;;;;5029507;28;20037;-53
2023/07/16 10:27:47;;;;;;;3.80;1.80;;;32.40;55.60;;;;;;5029449;28;20025;-52
2023/07/16 10:30:13;;;;;;;16.15;2.40;;;33.10;55.60;;;;;;5029415;28;20080;-53
2023/07/16 10:32:38;;;;;;;4.13;1.90;;;32.60;55.60;;;;;;5028995;28;20025;-53
2023/07/16 10:35:06;;;;;;;5.72;2.30;;;32.80;53.80;;;;;;5029413;28;20100;-53
2023/07/16 10:37:32;;;;;;;5.22;1.95;;;32.40;53.80;;;;;;5027808;28;20091;-53
2023/07/16 10:39:59;;;;;;;6.90;1.80;;;33.00;53.80;;;;;;5029141;28;20378;-53
2023/07/16 10:42:26;;;;;;;5.80;1.90;;;33.50;53.00;;;;;;5029005;28;20030;-53
2023/07/16 10:44:53;;;;;;;5.32;2.00;;;33.80;52.50;;;;;;5029491;28;20052;-55
2023/07/16 10:47:22;;;;;;;13.13;2.33;;;34.30;51.00;;;;;;5029128;28;20565;-55
2023/07/16 10:49:47;;;;;;;4.68;2.55;;;35.10;50.60;;;;;;5021525;28;20028;-55
2023/07/16 10:52:13;;;;;;;3.58;2.00;;;35.60;51.00;;;;;;5029028;28;20402;-55
2023/07/16 10:54:40;;;;;;;3.72;2.05;;;35.30;51.50;;;;;;5028685;28;20553;-54
2023/07/16 10:57:06;;;;;;;4.30;1.73;;;35.90;50.80;;;;;;5026966;28;20048;-54
2023/07/16 10:59:31;;;;;;;4.43;2.10;;;35.20;49.00;;;;;;5027307;28;20025;-55
2023/07/16 11:01:58;;;;;;;4.63;2.10;;;34.00;50.20;;;;;;5030672;28;20032;-54
2023/07/16 11:04:23;;;;;;;3.72;1.77;;;33.80;52.60;;;;;;5029930;28;20034;-53
2023/07/16 11:06:52;;;;;;;4.60;1.88;;;34.20;50.20;;;;;;5028053;28;20044;-52
2023/07/16 11:09:18;;;;;;;8.38;1.98;;;35.50;51.20;;;;;;5031844;28;20091;-52
2023/07/16 11:11:43;;;;;;;3.60;1.85;;;35.60;49.80;;;;;;5031783;28;20022;-52
2023/07/16 11:14:09;;;;;;;4.68;2.30;;;35.30;48.30;;;;;;5038852;28;20413;-53
2023/07/16 11:16:38;;;;;;;3.05;1.75;;;33.40;50.90;;;;;;5050591;28;20021;-53
2023/07/16 11:19:07;;;;;;;4.22;1.95;;;33.40;51.40;;;;;;5032032;28;20677;-52
2023/07/16 11:21:36;;;;;;;5.93;1.98;;;33.10;50.70;;;;;;5031757;28;20029;-53
2023/07/16 11:24:28;;;;;;;;;;;33.60;51.80;;;;;;5038094;28;20032;-52
2023/07/16 11:26:56;;;;;;;5.93;2.30;;;33.70;50.00;;;;;;5039222;28;19905;-52
2023/07/16 11:29:22;;;;;;;4.65;1.80;;;33.90;51.50;;;;;;5044369;28;20442;-51
2023/07/16 11:31:52;;;;;;;4.50;1.80;;;34.70;48.90;;;;;;5032179;28;20025;-52
2023/07/16 11:34:24;;;;;;;4.47;2.08;;;34.30;48.90;;;;;;5048166;28;20025;-53
2023/07/16 11:36:50;;;;;;;5.20;2.00;;;34.60;49.90;;;;;;5040641;28;20087;-52
2023/07/16 11:39:15;;;;;;;5.10;1.80;;;34.50;47.00;;;;;;5032339;28;20026;-53
2023/07/16 11:41:41;;;;;;;6.43;1.98;;;34.20;48.90;;;;;;5030926;28;20237;-52
2023/07/16 11:44:10;;;;;;;3.63;2.13;;;34.40;48.60;;;;;;5030655;28;20017;-52
2023/07/16 11:46:36;;;;;;;3.58;1.98;;;34.60;48.10;;;;;;5055299;28;20071;-52
2023/07/16 11:49:02;;;;;;;5.10;2.00;;;34.70;49.80;;;;;;5038048;28;20025;-52
2023/07/16 11:51:27;;;;;;;3.28;2.00;;;34.80;48.50;;;;;;5051911;28;20480;-54
2023/07/16 11:53:56;;;;;;;6.38;2.33;;;35.20;48.30;;;;;;5031792;28;20101;-54
2023/07/16 11:56:22;;;;;;;4.13;2.00;;;35.10;47.60;;;;;;5045322;28;20026;-55
2023/07/16 11:58:48;;;;;;;5.18;2.15;;;35.50;48.30;;;;;;5032987;28;20108;-54
2023/07/16 12:01:15;;;;;;;3.35;2.00;;;34.60;50.30;;;;;;5030977;28;20504;-55
2023/07/16 12:03:40;;;;;;;4.22;2.30;;;34.90;48.10;;;;;;5047943;28;20508;-55
2023/07/16 12:06:06;;;;;;;5.00;2.35;;;34.90;50.00;;;;;;5031678;28;20037;-53
2023/07/16 12:08:31;;;;;;;3.63;2.30;;;34.90;48.00;;;;;;5039305;28;20059;-54
2023/07/16 12:10:57;;;;;;;3.40;2.22;;;34.20;48.50;;;;;;5039377;28;20029;-54
2023/07/16 12:13:22;;;;;;;4.97;1.92;;;33.70;48.80;;;;;;5034186;28;20074;-54
2023/07/16 12:15:48;;;;;;;4.20;2.35;;;33.50;50.90;;;;;;5030419;28;20021;-54
2023/07/16 12:18:13;;;;;;;4.93;1.95;;;32.60;50.60;;;;;;5031590;28;20505;-52
2023/07/16 12:20:42;;;;;;;3.83;2.10;;;31.60;50.70;;;;;;5032896;28;20405;-52
2023/07/16 12:23:07;;;;;;;3.63;1.92;;;31.90;54.50;;;;;;5027486;28;20032;-52
2023/07/16 12:25:33;;;;;;;6.38;2.45;;;31.40;51.30;;;;;;5030083;28;20470;-52
2023/07/16 12:28:01;;;;;;;5.53;2.10;;;31.30;51.00;;;;;;5031255;28;20025;-52
2023/07/16 12:30:27;;;;;;;5.95;2.35;;;31.20;52.60;;;;;;5031289;28;20571;-52
2023/07/16 12:32:52;;;;;;;5.35;1.95;;;31.00;52.60;;;;;;5035042;28;20036;-51
2023/07/16 12:35:18;;;;;;;4.32;2.15;;;30.50;52.90;;;;;;5030612;28;20548;-51
2023/07/16 12:37:43;;;;;;;5.80;2.35;;;30.10;52.00;;;;;;5032071;28;20486;-51
2023/07/16 12:40:09;;;;;;;4.05;2.08;;;30.40;52.70;;;;;;5034838;28;20403;-51
2023/07/16 12:42:35;;;;;;;4.15;2.03;;;30.00;52.80;;;;;;5030908;28;20099;-52